This is the latest recevied weather packets stored in our database for station/object IU1OLT-6. If no packets are shown the sender has not sent any weather packets the latest 10 day(s).
| Time | Temp. | Humidity | Pressure | Rain* | Wind** | Luminosity | Snow |
|---|---|---|---|---|---|---|---|
| 1788444129 | 17.78° C | 87% | 1017.3 hPa | 0 mm | - | - | - |
| 1788443169 | 18.33° C | 83% | 1017.4 hPa | 0 mm | - | - | - |
| 1788442209 | 19.44° C | 77% | 1017.5 hPa | 0 mm | - | - | - |
| 1788441249 | 18.33° C | 82% | 1017.3 hPa | 0 mm | - | - | - |
| 1788440289 | 18.89° C | 77% | 1017.3 hPa | 0 mm | - | - | - |
| 1788439329 | 19.44° C | 74% | 1017.2 hPa | 0 mm | - | - | - |
| 1788438369 | 20° C | 74% | 1016.9 hPa | 0 mm | - | - | - |
| 1788437410 | 18.89° C | 75% | 1017.1 hPa | 0 mm | - | - | - |
| 1788436449 | 18.89° C | 75% | 1017.5 hPa | 0 mm | - | - | - |
| 1788435490 | 19.44° C | 72% | 1017.5 hPa | 0 mm | - | - | - |
| 1788434577 | 18.33° C | 75% | 1017.3 hPa | 0 mm | - | - | - |
| 1788432753 | 17.78° C | 76% | 1017.5 hPa | 0 mm | - | - | - |
| 1788431842 | 18.89° C | 72% | 1017.7 hPa | 0 mm | - | - | - |
| 1788430882 | 18.33° C | 75% | 1017.8 hPa | 0 mm | - | - | - |
| 1788429922 | 17.78° C | 74% | 1017.8 hPa | 0 mm | - | - | - |
| 1788428962 | 17.78° C | 73% | 1017.9 hPa | 0 mm | - | - | - |
| 1788428009 | 18.33° C | 69% | 1018 hPa | 0 mm | - | - | - |
| 1788428002 | 18.33° C | 69% | 1018 hPa | 0 mm | - | - | - |
| 1788427042 | 18.33° C | 67% | 1018.1 hPa | 0 mm | - | - | - |
| 1788426082 | 18.33° C | 68% | 1018 hPa | 0 mm | - | - | - |
| 1788425169 | 19.44° C | 62% | 1017.7 hPa | 0 mm | - | - | - |
| 1788424258 | 19.44° C | 51% | 1017.7 hPa | 0 mm | - | - | - |
| 1788423298 | 18.89° C | 45% | 1017.3 hPa | 0 mm | - | - | - |
| 1788422338 | 18.89° C | 44% | 1017.3 hPa | 0 mm | - | - | - |
| 1788421282 | 18.33° C | 42% | 1016.9 hPa | 0 mm | - | - | - |
* Rain latest hour (hover to see other rain measurements)
** Current wind speed in m/s (hover to see current wind gust speed)